Time;durP1;ratioP1;P1;durP2;ratioP2;P2;SDS_P1;SDS_P2;PMS_P1;PMS_P2;Temp;Humidity;BMP_temperature;BMP_pressure;BME280_temperature;BME280_humidity;BME280_pressure;Samples;Min_cycle;Max_cycle;Signal;HPM_P1;HPM_P2
2024/02/11 09:16:57;;;;;;;4.40;1.23;;;10.30;99.90;;;;;;4927824;23;20324;-81
2024/02/11 09:19:25;;;;;;;11.13;2.50;;;10.30;99.90;;;;;;4919840;29;20214;-83
2024/02/11 09:21:52;;;;;;;4.97;1.50;;;10.30;99.90;;;;;;4919194;29;20619;-81
2024/02/11 09:24:19;;;;;;;7.63;2.10;;;10.40;99.90;;;;;;4901445;29;20241;-79
2024/02/11 09:26:47;;;;;;;6.30;1.40;;;10.40;99.90;;;;;;4900279;29;20222;-80
2024/02/11 09:29:14;;;;;;;7.87;1.63;;;10.60;99.90;;;;;;4900411;29;20678;-81
2024/02/11 09:31:41;;;;;;;7.03;1.37;;;10.70;99.90;;;;;;4899585;29;20321;-78
2024/02/11 09:34:10;;;;;;;2.73;1.30;;;10.60;99.90;;;;;;4899780;29;20230;-78
2024/02/11 09:36:37;;;;;;;6.37;1.30;;;10.60;99.90;;;;;;4899878;29;20211;-77
2024/02/11 09:39:04;;;;;;;3.60;1.40;;;10.60;99.90;;;;;;4900099;29;20211;-74
2024/02/11 09:41:32;;;;;;;6.77;1.43;;;10.50;99.90;;;;;;4899637;29;20282;-74
2024/02/11 09:44:02;;;;;;;8.07;1.70;;;10.60;99.90;;;;;;4899406;29;20226;-75
2024/02/11 09:46:29;;;;;;;3.40;1.57;;;10.70;99.90;;;;;;4900128;29;20198;-77
2024/02/11 09:48:58;;;;;;;3.23;1.10;;;10.70;99.90;;;;;;4899937;29;20696;-78
2024/02/11 09:51:29;;;;;;;7.20;1.63;;;10.80;99.90;;;;;;4899179;29;20713;-78
2024/02/11 09:54:00;;;;;;;4.93;1.30;;;10.70;99.90;;;;;;4900193;29;20725;-80
2024/02/11 09:56:27;;;;;;;12.23;3.50;;;10.70;99.90;;;;;;4899388;29;20202;-78
2024/02/11 09:58:54;;;;;;;3.20;1.03;;;10.70;99.90;;;;;;4898863;29;20712;-79
2024/02/11 10:01:21;;;;;;;9.80;1.50;;;10.70;99.90;;;;;;4893614;29;20305;-79
2024/02/11 10:03:53;;;;;;;11.30;2.40;;;10.70;99.90;;;;;;4897073;29;20321;-77
2024/02/11 10:06:28;;;;;;;5.13;1.73;;;10.80;99.90;;;;;;4897035;29;20215;-77
2024/02/11 10:08:55;;;;;;;4.43;1.77;;;10.90;99.90;;;;;;4894613;29;20689;-73
2024/02/11 10:11:25;;;;;;;8.70;2.30;;;11.10;99.90;;;;;;4896891;29;20325;-74
2024/02/11 10:13:59;;;;;;;4.83;1.20;;;11.30;99.90;;;;;;4896224;29;20269;-78
2024/02/11 10:16:27;;;;;;;5.40;1.57;;;11.60;99.90;;;;;;4896984;29;20222;-75
2024/02/11 10:18:55;;;;;;;3.93;1.70;;;11.70;99.90;;;;;;4897395;29;20206;-75
2024/02/11 10:21:22;;;;;;;5.40;1.37;;;11.70;99.90;;;;;;4897169;29;20218;-75
2024/02/11 10:23:50;;;;;;;6.07;1.60;;;11.70;99.90;;;;;;4896869;29;20236;-75
2024/02/11 10:26:17;;;;;;;7.07;1.20;;;11.80;99.90;;;;;;4897247;29;20211;-74
2024/02/11 10:28:44;;;;;;;4.10;1.70;;;11.90;99.90;;;;;;4897420;29;20218;-80
2024/02/11 10:31:11;;;;;;;4.33;1.10;;;11.80;99.90;;;;;;4896043;29;20214;-75
2024/02/11 10:33:39;;;;;;;3.97;1.63;;;11.50;99.90;;;;;;4897632;29;20298;-78
2024/02/11 10:36:06;;;;;;;4.73;1.00;;;11.60;99.90;;;;;;4897639;29;20214;-80
2024/02/11 10:38:34;;;;;;;3.10;1.27;;;11.80;99.90;;;;;;4895862;29;20301;-76
2024/02/11 10:41:03;;;;;;;3.13;1.13;;;12.00;99.90;;;;;;4896777;29;20301;-77
2024/02/11 10:43:32;;;;;;;1.73;0.70;;;12.00;99.90;;;;;;4897133;29;20238;-76
2024/02/11 10:45:59;;;;;;;3.50;1.00;;;11.90;99.90;;;;;;4897434;29;20224;-75
2024/02/11 10:48:26;;;;;;;3.07;0.80;;;12.00;99.90;;;;;;4897215;29;20206;-77
2024/02/11 10:51:04;;;;;;;3.23;0.80;;;11.90;99.90;;;;;;4896490;29;20206;-78
2024/02/11 10:53:36;;;;;;;2.27;0.57;;;12.10;99.90;;;;;;4895533;29;20293;-75
2024/02/11 10:56:06;;;;;;;2.93;0.70;;;11.90;99.90;;;;;;4896964;29;20206;-79
2024/02/11 10:58:42;;;;;;;2.10;0.60;;;11.90;99.90;;;;;;4896991;29;20294;-73
2024/02/11 11:01:09;;;;;;;4.63;0.80;;;11.80;99.90;;;;;;4896467;29;20261;-73
2024/02/11 11:03:39;;;;;;;2.67;1.30;;;11.70;99.90;;;;;;4896502;29;20236;-74
2024/02/11 11:06:08;;;;;;;1.87;0.50;;;11.70;99.90;;;;;;4897014;29;20217;-76
2024/02/11 11:08:38;;;;;;;1.23;0.90;;;11.50;99.90;;;;;;4896292;29;20732;-77
2024/02/11 11:11:06;;;;;;;0.83;0.47;;;11.50;99.90;;;;;;4896438;29;20216;-74
2024/02/11 11:13:34;;;;;;;1.67;0.63;;;11.40;99.90;;;;;;4895934;29;20238;-75
2024/02/11 11:16:04;;;;;;;1.63;0.60;;;11.30;99.90;;;;;;4896083;29;20237;-75
2024/02/11 11:18:36;;;;;;;1.17;0.40;;;11.30;99.90;;;;;;4895765;29;20202;-75
2024/02/11 11:21:04;;;;;;;6.67;0.83;;;11.30;99.90;;;;;;4896313;29;20210;-74
2024/02/11 11:23:31;;;;;;;3.17;0.93;;;11.30;99.90;;;;;;4892617;29;20226;-77
2024/02/11 11:25:59;;;;;;;3.57;0.70;;;11.40;99.90;;;;;;4894468;29;20241;-78
2024/02/11 11:28:31;;;;;;;1.63;0.70;;;11.50;99.90;;;;;;4895929;29;20203;-77
2024/02/11 11:30:58;;;;;;;1.57;0.50;;;11.60;99.90;;;;;;4895779;29;20219;-76
2024/02/11 11:33:27;;;;;;;1.50;0.70;;;11.70;99.90;;;;;;4895812;29;20325;-77
2024/02/11 11:35:58;;;;;;;3.73;1.23;;;11.70;99.90;;;;;;4895618;29;20217;-77
2024/02/11 11:38:27;;;;;;;1.10;0.60;;;11.70;99.90;;;;;;4889939;29;20206;-76
2024/02/11 11:40:55;;;;;;;2.07;0.63;;;11.70;99.90;;;;;;4896316;29;20231;-76
2024/02/11 11:43:24;;;;;;;2.40;0.80;;;11.80;99.90;;;;;;4896037;29;20724;-78
2024/02/11 11:45:55;;;;;;;1.83;0.57;;;11.90;99.90;;;;;;4879179;29;20297;-83
2024/02/11 11:48:22;;;;;;;2.10;0.70;;;11.90;99.90;;;;;;4896153;29;20273;-83
2024/02/11 11:50:59;;;;;;;2.30;0.60;;;11.90;99.90;;;;;;4906246;29;20214;-80
2024/02/11 11:53:27;;;;;;;1.37;0.50;;;11.90;99.90;;;;;;4898492;29;20240;-81
2024/02/11 11:55:56;;;;;;;2.93;1.10;;;11.80;99.90;;;;;;4897789;29;20670;-80
2024/02/11 11:58:24;;;;;;;3.37;0.60;;;12.00;99.90;;;;;;4897864;29;20202;-83
2024/02/11 12:00:59;;;;;;;1.90;0.60;;;12.10;99.90;;;;;;4897742;29;20214;-82
2024/02/11 12:03:26;;;;;;;3.57;0.70;;;12.30;99.90;;;;;;4897619;29;20225;-82
2024/02/11 12:05:54;;;;;;;2.07;0.70;;;12.30;99.90;;;;;;4897657;29;20298;-84
2024/02/11 12:08:21;;;;;;;2.63;1.07;;;12.30;99.90;;;;;;4897356;29;20690;-78
2024/02/11 12:10:58;;;;;;;3.80;1.77;;;12.50;99.90;;;;;;4897482;29;20305;-81
2024/02/11 12:13:26;;;;;;;1.17;0.60;;;12.50;99.90;;;;;;4897116;29;20666;-80
2024/02/11 12:15:56;;;;;;;0.83;0.53;;;12.50;99.90;;;;;;4897745;29;20228;-82
2024/02/11 12:18:23;;;;;;;2.20;0.80;;;12.60;99.90;;;;;;4897369;29;20209;-81
2024/02/11 12:20:50;;;;;;;1.93;0.80;;;12.70;99.90;;;;;;4897555;29;20305;-81
2024/02/11 12:23:17;;;;;;;2.77;0.83;;;12.50;99.90;;;;;;4897468;29;20245;-81
2024/02/11 12:25:45;;;;;;;3.43;0.60;;;12.40;99.90;;;;;;4897358;29;20210;-81
2024/02/11 12:28:22;;;;;;;1.80;0.80;;;12.20;99.90;;;;;;4897233;29;20210;-82
2024/02/11 12:30:50;;;;;;;2.50;0.80;;;12.00;99.90;;;;;;4897567;29;20210;-81
2024/02/11 12:33:18;;;;;;;2.30;0.80;;;12.10;99.90;;;;;;4896970;29;20601;-82
2024/02/11 12:35:46;;;;;;;6.07;1.37;;;12.10;99.90;;;;;;4897078;29;20245;-81
2024/02/11 12:38:14;;;;;;;4.17;1.40;;;12.30;99.90;;;;;;4899618;29;20662;-81
2024/02/11 12:40:41;;;;;;;2.80;1.20;;;12.40;99.90;;;;;;4901435;29;20554;-82
2024/02/11 12:43:09;;;;;;;4.73;1.87;;;12.40;99.90;;;;;;4900976;29;20317;-81
2024/02/11 12:45:36;;;;;;;0.73;0.67;;;12.50;99.90;;;;;;4900986;29;20615;-81
2024/02/11 12:48:06;;;;;;;2.00;1.00;;;12.50;99.90;;;;;;4900391;29;20305;-80
2024/02/11 12:50:34;;;;;;;1.60;0.80;;;12.60;99.90;;;;;;4901041;29;20211;-80
2024/02/11 12:53:01;;;;;;;4.07;0.90;;;12.70;99.90;;;;;;4900265;29;20241;-80
2024/02/11 12:55:28;;;;;;;3.67;1.23;;;12.70;99.90;;;;;;4900385;29;20305;-80
2024/02/11 12:57:55;;;;;;;1.23;0.63;;;12.80;99.90;;;;;;4900136;29;20701;-80
2024/02/11 13:00:22;;;;;;;3.47;0.70;;;12.70;99.90;;;;;;4900221;29;20297;-80
2024/02/11 13:02:49;;;;;;;1.10;0.70;;;12.70;99.90;;;;;;4900002;29;20230;-79
2024/02/11 13:05:16;;;;;;;2.63;0.40;;;12.60;99.90;;;;;;4900360;29;20213;-77
2024/02/11 13:07:44;;;;;;;3.30;0.90;;;12.60;99.90;;;;;;4900222;29;20198;-77
2024/02/11 13:10:12;;;;;;;0.83;0.40;;;12.60;99.90;;;;;;4900411;29;20570;-76
2024/02/11 13:12:39;;;;;;;2.03;0.50;;;12.60;99.90;;;;;;4900246;29;20245;-82
2024/02/11 13:15:09;;;;;;;1.40;0.57;;;12.50;99.90;;;;;;4900195;29;20641;-77
2024/02/11 13:17:36;;;;;;;0.70;0.40;;;12.60;99.90;;;;;;4899775;29;20301;-78
2024/02/11 13:20:05;;;;;;;3.07;0.40;;;12.40;99.90;;;;;;4900122;29;20210;-79
2024/02/11 13:22:33;;;;;;;3.73;1.30;;;12.30;99.90;;;;;;4900099;29;20318;-80
2024/02/11 13:25:01;;;;;;;2.03;0.50;;;12.30;99.90;;;;;;4900147;29;20212;-84
2024/02/11 13:27:28;;;;;;;0.67;0.30;;;12.30;99.90;;;;;;4899451;29;20214;-78
2024/02/11 13:29:56;;;;;;;0.90;0.30;;;12.50;99.90;;;;;;4899810;29;20699;-81
2024/02/11 13:32:23;;;;;;;1.37;0.47;;;12.80;99.90;;;;;;4899976;29;20217;-79
2024/02/11 13:34:51;;;;;;;5.20;0.40;;;12.90;99.90;;;;;;4900813;29;20543;-82
2024/02/11 13:37:19;;;;;;;1.70;0.40;;;12.90;99.90;;;;;;4900696;29;20219;-80
2024/02/11 13:39:46;;;;;;;1.13;0.40;;;12.90;99.90;;;;;;4900381;29;20704;-79
2024/02/11 13:42:15;;;;;;;0.60;0.33;;;12.80;99.90;;;;;;4900578;29;20562;-79
2024/02/11 13:44:43;;;;;;;0.70;0.30;;;12.80;99.90;;;;;;4900065;29;20757;-79
2024/02/11 13:47:10;;;;;;;0.80;0.27;;;12.90;99.90;;;;;;4900610;29;20221;-80
2024/02/11 13:49:38;;;;;;;4.80;0.43;;;12.80;99.90;;;;;;4900326;29;20614;-79
2024/02/11 13:52:06;;;;;;;0.80;0.40;;;12.60;99.90;;;;;;4901378;29;20643;-81
2024/02/11 13:54:33;;;;;;;3.50;0.93;;;12.80;99.90;;;;;;4901084;29;20238;-78
2024/02/11 13:57:00;;;;;;;1.57;0.30;;;12.90;99.90;;;;;;4901858;29;20301;-78
2024/02/11 13:59:29;;;;;;;0.33;0.30;;;13.10;99.90;;;;;;4901670;29;20735;-80
2024/02/11 14:01:56;;;;;;;2.30;0.47;;;13.20;99.90;;;;;;4902406;29;20301;-79
2024/02/11 14:04:23;;;;;;;0.70;0.40;;;13.20;99.90;;;;;;4900969;29;20713;-79
2024/02/11 14:06:51;;;;;;;2.40;0.50;;;13.30;99.90;;;;;;4902976;29;20306;-80
2024/02/11 14:09:20;;;;;;;2.00;0.40;;;13.30;99.90;;;;;;4901611;29;20221;-79
2024/02/11 14:11:48;;;;;;;1.30;0.57;;;13.30;99.90;;;;;;4900680;29;20211;-82
2024/02/11 14:14:17;;;;;;;0.67;0.33;;;13.10;99.90;;;;;;4901462;29;20264;-82
2024/02/11 14:16:45;;;;;;;2.23;0.70;;;13.00;99.90;;;;;;4901354;29;20701;-79
2024/02/11 14:19:13;;;;;;;4.90;1.80;;;12.80;99.90;;;;;;4900682;29;20673;-81
2024/02/11 14:21:47;;;;;;;3.03;0.80;;;12.90;99.90;;;;;;4900633;29;20206;-79
2024/02/11 14:24:14;;;;;;;1.67;1.13;;;12.90;99.90;;;;;;4900408;29;20325;-79
2024/02/11 14:26:42;;;;;;;2.17;1.00;;;12.80;99.90;;;;;;4899617;29;20297;-79
2024/02/11 14:29:10;;;;;;;6.50;2.03;;;12.80;99.90;;;;;;4899465;29;20210;-82
2024/02/11 14:31:38;;;;;;;1.50;0.50;;;12.90;99.90;;;;;;4899784;29;20214;-79
2024/02/11 14:34:07;;;;;;;2.80;0.80;;;13.00;99.90;;;;;;4899162;29;20242;-79
2024/02/11 14:36:37;;;;;;;1.30;0.50;;;13.00;99.90;;;;;;4899794;29;20210;-79
2024/02/11 14:39:05;;;;;;;5.20;1.33;;;13.00;99.90;;;;;;4900252;29;20221;-82
2024/02/11 14:41:33;;;;;;;2.10;0.77;;;13.00;99.90;;;;;;4899699;29;20210;-79
2024/02/11 14:44:00;;;;;;;1.03;0.40;;;12.90;99.90;;;;;;4901415;29;20282;-82
2024/02/11 14:46:27;;;;;;;2.37;0.70;;;12.70;99.90;;;;;;4901248;29;20238;-79
2024/02/11 14:48:54;;;;;;;2.33;0.40;;;12.70;99.90;;;;;;4899960;29;20622;-79
2024/02/11 14:51:23;;;;;;;0.67;0.40;;;12.60;99.90;;;;;;4899903;29;20258;-78
2024/02/11 14:53:50;;;;;;;1.33;0.60;;;12.60;99.90;;;;;;4899930;29;20246;-81
2024/02/11 14:56:17;;;;;;;1.33;0.50;;;12.50;99.90;;;;;;4901361;29;20242;-78
2024/02/11 14:58:44;;;;;;;1.10;0.40;;;12.10;99.90;;;;;;4900172;29;20622;-78
2024/02/11 15:01:11;;;;;;;4.33;1.00;;;11.90;99.90;;;;;;4900179;29;20245;-79
2024/02/11 15:03:40;;;;;;;8.80;3.40;;;11.80;99.90;;;;;;4900137;29;20240;-79
2024/02/11 15:06:09;;;;;;;7.70;2.53;;;11.70;99.90;;;;;;4899549;29;20233;-79
2024/02/11 15:08:38;;;;;;;7.07;3.50;;;11.70;99.90;;;;;;4899371;29;20578;-79
2024/02/11 15:11:05;;;;;;;5.33;1.70;;;11.60;99.90;;;;;;4899289;29;20210;-78
2024/02/11 15:13:33;;;;;;;3.10;1.20;;;11.60;99.90;;;;;;4899682;29;20328;-79
2024/02/11 15:16:00;;;;;;;1.10;0.80;;;11.50;99.90;;;;;;4898127;29;20222;-81
2024/02/11 15:18:27;;;;;;;3.63;1.73;;;11.40;99.90;;;;;;4899895;29;20321;-78
2024/02/11 15:20:54;;;;;;;5.50;2.30;;;11.40;99.90;;;;;;4900527;29;20233;-79
2024/02/11 15:23:21;;;;;;;1.67;0.83;;;11.30;99.90;;;;;;4899893;29;20317;-79
2024/02/11 15:25:49;;;;;;;4.97;1.10;;;11.30;99.90;;;;;;4902015;29;20282;-79
2024/02/11 15:28:16;;;;;;;4.93;0.83;;;11.20;99.90;;;;;;4900201;29;20308;-78
2024/02/11 15:30:43;;;;;;;2.30;1.20;;;11.30;99.90;;;;;;4899423;29;20322;-79
2024/02/11 15:33:12;;;;;;;3.93;1.60;;;11.30;99.90;;;;;;4905771;29;20773;-81
2024/02/11 15:35:39;;;;;;;1.23;0.80;;;11.40;99.90;;;;;;4900105;29;20309;-78
2024/02/11 15:38:06;;;;;;;1.50;0.90;;;11.40;99.90;;;;;;4900056;29;20213;-80
2024/02/11 15:40:33;;;;;;;1.00;0.50;;;11.30;99.90;;;;;;4900029;29;20241;-79
2024/02/11 15:43:03;;;;;;;1.60;0.50;;;11.40;99.90;;;;;;4900401;29;20321;-81
2024/02/11 15:45:30;;;;;;;0.90;0.57;;;11.40;99.90;;;;;;4900292;29;20210;-78
2024/02/11 15:47:57;;;;;;;1.00;0.60;;;11.40;99.90;;;;;;4900468;29;20297;-78
2024/02/11 15:50:23;;;;;;;1.20;0.53;;;11.40;99.90;;;;;;4901734;29;20242;-80
2024/02/11 15:52:52;;;;;;;1.37;0.50;;;11.50;99.90;;;;;;4900829;29;20238;-79
2024/02/11 15:55:21;;;;;;;0.63;0.30;;;11.50;99.90;;;;;;4900213;29;20222;-80
2024/02/11 15:57:47;;;;;;;0.80;0.70;;;11.60;99.90;;;;;;4899788;29;20206;-79
2024/02/11 16:00:19;;;;;;;2.57;0.70;;;11.70;99.90;;;;;;4900238;29;20297;-79
2024/02/11 16:02:47;;;;;;;2.30;0.60;;;11.70;99.90;;;;;;4900038;29;20698;-80
2024/02/11 16:05:13;;;;;;;1.37;0.63;;;11.70;99.90;;;;;;4900316;29;20217;-79
2024/02/11 16:07:42;;;;;;;2.37;0.90;;;11.70;99.90;;;;;;4899450;29;20217;-82
2024/02/11 16:10:11;;;;;;;1.27;0.80;;;11.80;99.90;;;;;;4900018;29;20226;-79
2024/02/11 16:12:38;;;;;;;2.20;0.80;;;11.80;99.90;;;;;;4901772;29;20773;-80
2024/02/11 16:15:06;;;;;;;0.67;0.50;;;12.00;99.90;;;;;;4901952;29;20242;-79
2024/02/11 16:17:37;;;;;;;0.60;0.40;;;11.90;99.90;;;;;;4903589;29;20222;-80
2024/02/11 16:20:05;;;;;;;1.53;0.50;;;11.80;99.90;;;;;;4904691;29;20218;-78
2024/02/11 16:22:33;;;;;;;3.00;0.97;;;11.80;99.90;;;;;;4904589;29;20594;-78
2024/02/11 16:25:00;;;;;;;1.27;0.70;;;11.90;99.90;;;;;;4905007;29;20304;-79
2024/02/11 16:27:26;;;;;;;3.20;0.90;;;11.80;99.90;;;;;;4904496;29;20309;-79
2024/02/11 16:29:53;;;;;;;2.83;1.03;;;11.70;99.90;;;;;;4904693;29;20273;-78
2024/02/11 16:32:21;;;;;;;1.30;0.90;;;11.70;99.90;;;;;;4904133;29;20289;-80
2024/02/11 16:34:49;;;;;;;4.10;1.40;;;11.50;99.90;;;;;;4903537;29;20240;-78
2024/02/11 16:37:17;;;;;;;2.83;1.13;;;11.60;99.90;;;;;;4903244;29;20215;-78
2024/02/11 16:39:45;;;;;;;1.93;1.00;;;11.60;99.90;;;;;;4901637;29;20214;-78
2024/02/11 16:42:12;;;;;;;2.17;1.30;;;11.50;99.90;;;;;;4903243;29;20570;-78
2024/02/11 16:44:38;;;;;;;1.70;1.00;;;11.50;99.90;;;;;;4903346;29;20210;-80
2024/02/11 16:47:08;;;;;;;1.40;0.60;;;11.50;99.90;;;;;;4902499;29;20220;-78
2024/02/11 16:49:35;;;;;;;1.73;0.60;;;11.50;99.90;;;;;;4902993;29;20262;-78
2024/02/11 16:52:05;;;;;;;1.53;0.93;;;11.40;99.90;;;;;;4901805;29;20629;-79
2024/02/11 16:54:33;;;;;;;2.80;1.47;;;11.40;99.90;;;;;;4901425;29;20713;-79
2024/02/11 16:57:01;;;;;;;3.13;1.10;;;11.40;99.90;;;;;;4900701;29;20210;-80
2024/02/11 16:59:28;;;;;;;4.73;0.87;;;11.40;99.90;;;;;;4901457;29;20576;-79
2024/02/11 17:01:55;;;;;;;2.00;0.73;;;11.40;99.90;;;;;;4901664;29;20685;-78
2024/02/11 17:04:22;;;;;;;1.53;0.53;;;11.40;99.90;;;;;;4901599;29;20231;-78
2024/02/11 17:06:49;;;;;;;1.63;1.00;;;11.30;99.90;;;;;;4901256;29;20301;-79
2024/02/11 17:09:17;;;;;;;1.23;0.80;;;11.30;99.90;;;;;;4900694;29;20210;-78
2024/02/11 17:11:46;;;;;;;1.57;0.90;;;11.20;99.90;;;;;;4902242;29;20221;-79
2024/02/11 17:14:14;;;;;;;2.70;1.10;;;11.20;99.90;;;;;;4901999;29;20277;-79
2024/02/11 17:16:43;;;;;;;3.50;1.30;;;11.10;99.90;;;;;;4902287;29;20304;-77
2024/02/11 17:19:12;;;;;;;2.70;0.80;;;11.10;99.90;;;;;;4901386;29;20680;-78
2024/02/11 17:21:39;;;;;;;1.40;0.83;;;11.10;99.90;;;;;;4901422;29;20238;-78
2024/02/11 17:24:07;;;;;;;1.20;0.90;;;11.20;99.90;;;;;;4901046;29;20590;-79
2024/02/11 17:26:35;;;;;;;3.63;1.30;;;11.20;99.90;;;;;;4901978;29;20257;-78
2024/02/11 17:29:02;;;;;;;6.30;2.33;;;11.10;99.90;;;;;;4901725;29;20274;-80
2024/02/11 17:31:29;;;;;;;2.70;1.40;;;11.10;99.90;;;;;;4900945;29;20257;-78
2024/02/11 17:33:56;;;;;;;4.03;2.03;;;11.00;99.90;;;;;;4901659;29;20609;-80
2024/02/11 17:36:24;;;;;;;1.30;0.80;;;11.00;99.90;;;;;;4901221;29;20646;-78
2024/02/11 17:38:52;;;;;;;1.90;0.90;;;10.90;99.90;;;;;;4901069;29;20235;-77
2024/02/11 17:41:19;;;;;;;3.33;0.93;;;10.90;99.90;;;;;;4901366;29;20221;-78
2024/02/11 17:43:48;;;;;;;1.73;0.90;;;10.90;99.90;;;;;;4900669;29;20318;-78
2024/02/11 17:46:15;;;;;;;2.10;1.10;;;10.90;99.90;;;;;;4901580;29;20289;-79
2024/02/11 17:48:43;;;;;;;2.03;1.50;;;10.90;99.90;;;;;;4901405;29;20745;-78
2024/02/11 17:51:10;;;;;;;3.37;1.40;;;10.90;99.90;;;;;;4901601;29;20210;-79
2024/02/11 17:53:38;;;;;;;5.63;2.03;;;10.90;99.90;;;;;;4901258;29;20226;-78
2024/02/11 17:56:08;;;;;;;5.43;2.00;;;10.80;99.90;;;;;;4903410;29;20213;-78
2024/02/11 17:58:34;;;;;;;3.47;1.60;;;10.80;99.90;;;;;;4902066;29;20317;-79
2024/02/11 18:01:03;;;;;;;2.53;1.27;;;10.70;99.90;;;;;;4900837;29;20297;-78
2024/02/11 18:03:32;;;;;;;2.70;1.23;;;10.70;99.90;;;;;;4900766;29;20773;-79
2024/02/11 18:06:00;;;;;;;4.13;1.63;;;10.70;99.90;;;;;;4901592;29;20249;-78
2024/02/11 18:08:28;;;;;;;4.43;1.47;;;10.70;99.90;;;;;;4901753;29;20207;-78
2024/02/11 18:10:55;;;;;;;3.97;2.00;;;10.70;99.90;;;;;;4902290;29;20274;-78
2024/02/11 18:13:22;;;;;;;2.87;1.23;;;10.80;99.90;;;;;;4902253;29;20313;-77
2024/02/11 18:15:50;;;;;;;6.67;1.33;;;10.70;99.90;;;;;;4901304;29;20264;-78
2024/02/11 18:18:19;;;;;;;3.57;1.60;;;10.60;99.90;;;;;;4901067;29;20214;-78
2024/02/11 18:20:47;;;;;;;4.47;1.30;;;10.60;99.90;;;;;;4901588;29;20309;-78
2024/02/11 18:23:15;;;;;;;2.90;1.60;;;10.60;99.90;;;;;;4901278;29;20295;-78
2024/02/11 18:25:42;;;;;;;3.13;2.03;;;10.70;99.90;;;;;;4901387;29;20749;-77
2024/02/11 18:28:10;;;;;;;5.17;2.10;;;10.80;99.90;;;;;;4901554;29;20212;-78
2024/02/11 18:30:37;;;;;;;7.83;2.40;;;10.70;99.90;;;;;;4900169;29;20304;-80
2024/02/11 18:33:04;;;;;;;6.57;2.70;;;10.70;99.90;;;;;;4901166;29;20238;-78
2024/02/11 18:35:33;;;;;;;6.27;2.23;;;10.80;99.90;;;;;;4900291;29;20238;-80
2024/02/11 18:38:00;;;;;;;8.50;2.90;;;10.90;99.90;;;;;;4900821;29;20638;-79
2024/02/11 18:40:27;;;;;;;4.30;1.90;;;10.90;99.90;;;;;;4900934;29;20634;-79
2024/02/11 18:42:55;;;;;;;5.00;2.50;;;10.80;99.90;;;;;;4901107;29;20328;-79
2024/02/11 18:45:22;;;;;;;5.90;2.53;;;10.70;99.90;;;;;;4900614;29;20210;-79
2024/02/11 18:47:50;;;;;;;5.10;2.40;;;10.70;99.90;;;;;;4899952;29;20622;-81
2024/02/11 18:50:18;;;;;;;7.23;3.10;;;10.70;99.90;;;;;;4901706;29;20203;-78
2024/02/11 18:52:47;;;;;;;6.07;2.83;;;10.70;99.90;;;;;;4900592;29;20231;-78
2024/02/11 18:55:14;;;;;;;6.80;2.67;;;10.70;99.90;;;;;;4901087;29;20293;-78
2024/02/11 18:57:41;;;;;;;4.73;2.83;;;10.70;99.90;;;;;;4899829;29;20234;-77
2024/02/11 19:00:09;;;;;;;4.50;2.30;;;10.70;99.90;;;;;;4899523;29;20246;-79
2024/02/11 19:02:37;;;;;;;3.40;2.30;;;10.60;99.90;;;;;;4898842;29;20237;-78
2024/02/11 19:05:04;;;;;;;5.23;2.53;;;10.60;99.90;;;;;;4898953;29;20249;-81
2024/02/11 19:07:31;;;;;;;6.47;2.60;;;10.50;99.90;;;;;;4899741;29;20249;-79
2024/02/11 19:10:00;;;;;;;3.40;2.20;;;10.50;99.90;;;;;;4899281;29;20576;-77
2024/02/11 19:12:27;;;;;;;4.97;2.20;;;10.50;99.90;;;;;;4899606;29;20230;-77
2024/02/11 19:14:54;;;;;;;2.53;1.33;;;10.40;99.90;;;;;;4899357;29;20252;-78
2024/02/11 19:17:21;;;;;;;2.50;1.40;;;10.40;99.90;;;;;;4898796;29;20218;-81
2024/02/11 19:19:48;;;;;;;5.47;1.23;;;10.50;99.90;;;;;;4899050;29;20674;-78
2024/02/11 19:22:15;;;;;;;3.60;1.30;;;10.50;99.90;;;;;;4899640;29;20206;-78
2024/02/11 19:24:42;;;;;;;2.63;1.03;;;10.50;99.90;;;;;;4899898;29;20210;-78
2024/02/11 19:27:12;;;;;;;2.30;0.90;;;10.50;99.90;;;;;;4899352;29;20220;-79
2024/02/11 19:29:39;;;;;;;1.83;0.77;;;10.40;99.90;;;;;;4900433;29;20214;-78
2024/02/11 19:32:06;;;;;;;2.50;0.70;;;10.40;99.90;;;;;;4900644;29;20218;-78
2024/02/11 19:34:36;;;;;;;2.73;0.80;;;10.40;99.90;;;;;;4899972;29;20238;-79
2024/02/11 19:37:05;;;;;;;1.37;0.70;;;10.40;99.90;;;;;;4901011;29;20301;-78
2024/02/11 19:39:32;;;;;;;3.80;1.27;;;10.50;99.90;;;;;;4900351;29;20206;-78
2024/02/11 19:42:00;;;;;;;2.17;1.10;;;10.60;99.90;;;;;;4900007;29;20210;-80
2024/02/11 19:44:30;;;;;;;2.40;1.00;;;10.50;99.90;;;;;;4902647;29;20262;-79
2024/02/11 19:46:57;;;;;;;2.10;1.23;;;10.50;99.90;;;;;;4902559;29;20306;-78
2024/02/11 19:49:25;;;;;;;0.67;0.63;;;10.40;99.90;;;;;;4900357;29;20217;-79
2024/02/11 19:51:52;;;;;;;2.00;1.17;;;10.40;99.90;;;;;;4900824;29;20217;-79
2024/02/11 19:54:19;;;;;;;2.00;1.00;;;10.30;99.90;;;;;;4899748;29;20313;-81
2024/02/11 19:56:47;;;;;;;2.80;1.30;;;10.30;99.90;;;;;;4899440;29;20207;-81
2024/02/11 19:59:14;;;;;;;1.73;1.33;;;10.20;99.90;;;;;;4899737;29;20293;-80
2024/02/11 20:01:46;;;;;;;3.50;1.40;;;10.10;99.90;;;;;;4900218;29;20230;-80
2024/02/11 20:04:13;;;;;;;3.20;1.33;;;10.00;99.90;;;;;;4897893;29;20321;-80
2024/02/11 20:06:42;;;;;;;3.67;1.60;;;10.00;99.90;;;;;;4898112;29;20297;-79
2024/02/11 20:09:12;;;;;;;2.70;1.63;;;9.90;99.90;;;;;;4897905;29;20244;-80
2024/02/11 20:11:44;;;;;;;4.43;2.10;;;10.00;99.90;;;;;;4897866;29;20285;-80
2024/02/11 20:14:10;;;;;;;2.23;1.50;;;9.80;99.90;;;;;;4897518;29;20262;-80
2024/02/11 20:16:40;;;;;;;2.17;1.40;;;9.70;99.90;;;;;;4898558;29;20745;-80
2024/02/11 20:19:09;;;;;;;4.93;1.80;;;9.60;99.90;;;;;;4898860;29;20218;-80
2024/02/11 20:21:36;;;;;;;4.33;2.10;;;9.60;99.90;;;;;;4898456;29;20210;-80
2024/02/11 20:24:07;;;;;;;6.87;2.57;;;9.60;99.90;;;;;;4897654;29;20654;-80
2024/02/11 20:26:34;;;;;;;3.03;1.83;;;9.70;99.90;;;;;;4897486;29;20737;-80
2024/02/11 20:29:02;;;;;;;4.80;2.63;;;9.60;99.90;;;;;;4897550;29;20301;-80
2024/02/11 20:31:29;;;;;;;5.40;1.90;;;9.60;99.90;;;;;;4897242;29;20209;-80
2024/02/11 20:33:56;;;;;;;2.73;1.90;;;9.70;99.90;;;;;;4897575;29;20234;-79
2024/02/11 20:36:25;;;;;;;2.77;1.83;;;9.60;99.90;;;;;;4897520;29;20330;-81
2024/02/11 20:38:53;;;;;;;2.40;1.70;;;9.70;99.90;;;;;;4897260;29;20211;-79
2024/02/11 20:41:20;;;;;;;3.83;2.10;;;9.60;99.90;;;;;;4897458;29;20218;-80
2024/02/11 20:43:46;;;;;;;3.23;1.80;;;9.80;99.90;;;;;;4897576;29;20257;-81
2024/02/11 20:46:13;;;;;;;3.80;2.13;;;9.90;99.90;;;;;;4897918;29;20282;-80
2024/02/11 20:48:41;;;;;;;3.30;1.67;;;9.80;99.90;;;;;;4898154;29;20298;-80
2024/02/11 20:51:08;;;;;;;3.93;2.00;;;9.70;99.90;;;;;;4898017;29;20211;-81
2024/02/11 20:53:37;;;;;;;4.07;2.37;;;9.70;99.90;;;;;;4897252;29;20447;-79
2024/02/11 20:56:05;;;;;;;4.33;1.77;;;9.70;99.90;;;;;;4897286;29;20639;-79
2024/02/11 20:58:33;;;;;;;5.33;2.37;;;9.80;99.90;;;;;;4899002;29;20615;-79
2024/02/11 21:01:01;;;;;;;2.77;1.97;;;9.90;99.90;;;;;;4901217;29;20211;-80
2024/02/11 21:03:28;;;;;;;3.80;2.10;;;9.90;99.90;;;;;;4900662;29;20226;-81
2024/02/11 21:05:56;;;;;;;2.73;1.70;;;9.80;99.90;;;;;;4901081;29;20222;-81
2024/02/11 21:08:23;;;;;;;4.80;2.03;;;9.80;99.90;;;;;;4900949;29;20297;-80
2024/02/11 21:10:52;;;;;;;3.57;2.03;;;9.70;99.90;;;;;;4900739;29;20239;-80
2024/02/11 21:13:19;;;;;;;4.00;2.07;;;9.60;99.90;;;;;;4901070;29;20269;-80
2024/02/11 21:15:47;;;;;;;3.73;1.70;;;9.70;99.90;;;;;;4901138;29;20244;-80
2024/02/11 21:18:14;;;;;;;4.00;2.07;;;9.80;99.90;;;;;;4902023;29;20693;-80
2024/02/11 21:20:42;;;;;;;4.60;2.33;;;9.80;99.90;;;;;;4902158;29;20309;-80
2024/02/11 21:23:09;;;;;;;7.20;2.50;;;9.70;99.90;;;;;;4901066;29;20765;-80
2024/02/11 21:25:36;;;;;;;4.90;2.23;;;9.70;99.90;;;;;;4900859;29;20237;-80
2024/02/11 21:28:05;;;;;;;5.80;2.53;;;9.80;99.90;;;;;;4900419;29;20219;-80
2024/02/11 21:30:33;;;;;;;6.27;2.80;;;9.70;99.90;;;;;;4900502;29;20210;-79
2024/02/11 21:33:01;;;;;;;3.57;2.10;;;9.60;99.90;;;;;;4900193;29;20272;-80
2024/02/11 21:35:28;;;;;;;9.50;3.33;;;9.60;99.90;;;;;;4900419;29;20242;-80
2024/02/11 21:37:55;;;;;;;6.97;3.67;;;9.60;99.90;;;;;;4900116;29;20221;-80
2024/02/11 21:40:22;;;;;;;6.47;2.60;;;9.70;99.90;;;;;;4900231;29;20210;-80
2024/02/11 21:42:49;;;;;;;6.80;2.60;;;9.70;99.90;;;;;;4899943;29;20285;-81
2024/02/11 21:45:19;;;;;;;5.20;2.67;;;9.60;99.90;;;;;;4900150;29;20210;-80
2024/02/11 21:47:46;;;;;;;7.37;2.87;;;9.60;99.90;;;;;;4899904;29;20218;-80
2024/02/11 21:50:13;;;;;;;4.83;2.50;;;9.70;99.90;;;;;;4899950;29;20211;-80
2024/02/11 21:52:41;;;;;;;4.97;2.63;;;9.60;99.90;;;;;;4899515;29;20631;-80
2024/02/11 21:55:09;;;;;;;4.97;2.93;;;9.60;99.90;;;;;;4900063;29;20234;-80
2024/02/11 21:57:37;;;;;;;5.03;2.93;;;9.60;99.90;;;;;;4899959;29;20221;-80
2024/02/11 22:00:09;;;;;;;4.90;2.90;;;9.60;99.90;;;;;;4899672;29;20211;-80
2024/02/11 22:02:39;;;;;;;5.73;2.63;;;9.60;99.90;;;;;;4899385;29;20230;-80
2024/02/11 22:05:07;;;;;;;5.80;2.80;;;9.50;99.90;;;;;;4899840;29;20237;-80
2024/02/11 22:07:34;;;;;;;7.63;2.77;;;9.50;99.90;;;;;;4899692;29;20676;-80